Time;durP1;ratioP1;P1;durP2;ratioP2;P2;SDS_P1;SDS_P2;PMS_P1;PMS_P2;Temp;Humidity;BMP_temperature;BMP_pressure;BME280_temperature;BME280_humidity;BME280_pressure;Samples;Min_cycle;Max_cycle;Signal;HPM_P1;HPM_P2
2022/10/02 00:01:46;;;;;;;28.67;6.97;;;;;;;13.43;89.41;101287.16;4974656;28;20023;-53
2022/10/02 00:04:17;;;;;;;29.65;6.72;;;;;;;13.38;89.31;101283.94;4941383;28;20062;-53
2022/10/02 00:06:47;;;;;;;25.98;6.15;;;;;;;13.44;89.54;101296.88;4951418;29;20027;-52
2022/10/02 00:09:35;;;;;;;29.38;6.70;;;;;;;13.46;89.78;101296.78;4949109;28;20035;-52
2022/10/02 00:12:04;;;;;;;26.85;6.35;;;;;;;13.47;89.56;101295.81;4982227;28;20046;-52
2022/10/02 00:14:34;;;;;;;25.77;7.28;;;;;;;13.49;89.83;101301.94;4999032;28;20056;-52
2022/10/02 00:17:02;;;;;;;27.80;7.15;;;;;;;13.47;90.03;101303.84;4990614;28;20053;-50
2022/10/02 00:19:28;;;;;;;30.08;7.63;;;;;;;13.46;90.41;101299.47;4988792;28;20117;-52
2022/10/02 00:22:28;;;;;;;25.38;6.95;;;;;;;13.45;90.60;101306.63;4965277;28;20097;-53
2022/10/02 00:25:23;;;;;;;32.40;6.78;;;;;;;13.48;90.59;101309.09;4969516;28;20110;-52
2022/10/02 00:28:34;;;;;;;28.45;5.95;;;;;;;13.43;90.89;101307.69;4985342;28;20031;-52
2022/10/02 00:31:05;;;;;;;27.85;6.30;;;;;;;13.44;91.14;101314.72;4983474;28;20042;-53
2022/10/02 00:34:02;;;;;;;29.65;6.80;;;;;;;13.43;90.92;101321.06;4998045;28;20038;-53
2022/10/02 00:36:48;;;;;;;31.55;6.35;;;;;;;13.39;91.37;101323.94;4970352;28;20477;-51
2022/10/02 00:39:16;;;;;;;26.58;6.85;;;;;;;13.38;91.77;101324.03;4970728;28;20034;-51
2022/10/02 00:42:19;;;;;;;30.67;6.22;;;;;;;13.38;91.45;101316.88;4984762;28;20053;-52
2022/10/02 00:45:22;;;;;;;31.48;6.28;;;;;;;13.42;91.46;101324.69;4989608;28;20042;-52
2022/10/02 00:48:03;;;;;;;27.10;6.68;;;;;;;13.36;91.95;101312.59;4998753;28;20023;-51
2022/10/02 00:50:28;;;;;;;29.17;6.78;;;;;;;13.35;92.21;101318.88;4988260;28;20925;-50
2022/10/02 00:53:05;;;;;;;24.52;6.53;;;;;;;13.42;92.08;101330.03;4989245;28;20101;-52
2022/10/02 00:55:36;;;;;;;30.88;6.57;;;;;;;13.37;92.53;101325.84;4988512;28;20054;-51
2022/10/02 00:58:20;;;;;;;29.20;7.20;;;;;;;13.38;92.20;101319.56;4989762;28;20374;-53
2022/10/02 01:00:56;;;;;;;34.05;7.50;;;;;;;13.37;92.18;101319.66;4987913;28;20026;-52
2022/10/02 01:03:36;;;;;;;28.20;7.43;;;;;;;13.38;92.85;101321.34;4966192;28;20056;-52
2022/10/02 01:06:02;;;;;;;39.33;7.60;;;;;;;13.37;92.92;101319.66;4986768;28;20034;-52
2022/10/02 01:08:27;;;;;;;30.50;7.93;;;;;;;13.34;93.12;101326.03;5002608;28;20022;-52
2022/10/02 01:10:53;;;;;;;34.88;6.65;;;;;;;13.33;93.07;101318.16;4989453;28;20115;-52
2022/10/02 01:13:24;;;;;;;32.65;7.07;;;;;;;13.37;93.29;101331.19;4990812;28;20472;-52
2022/10/02 01:15:55;;;;;;;30.55;6.85;;;;;;;13.42;93.36;101330.88;4974484;28;20039;-53
2022/10/02 01:18:20;;;;;;;32.88;6.38;;;;;;;13.37;93.99;101333.00;4984404;28;20034;-52
2022/10/02 01:20:50;;;;;;;30.42;6.82;;;;;;;13.42;93.76;101328.22;4991485;28;20021;-53
2022/10/02 01:23:50;;;;;;;29.38;6.65;;;;;;;13.41;93.60;101321.13;4991451;28;20034;-52
2022/10/02 01:26:16;;;;;;;33.90;6.90;;;;;;;13.32;93.84;101316.41;4982723;28;20527;-52
2022/10/02 01:28:42;;;;;;;45.03;7.97;;;;;;;13.38;94.47;101311.53;4992191;28;20062;-53
2022/10/02 01:31:09;;;;;;;36.25;6.85;;;;;;;13.37;94.73;101314.31;4975158;28;20038;-53
2022/10/02 01:33:38;;;;;;;36.78;7.40;;;;;;;13.38;94.10;101311.53;4991464;28;20034;-52
2022/10/02 01:36:04;;;;;;;29.92;6.40;;;;;;;13.42;94.54;101311.34;4977988;28;20030;-51
2022/10/02 01:38:33;;;;;;;36.65;7.00;;;;;;;13.42;94.63;101322.03;4982262;28;20086;-52
2022/10/02 01:40:59;;;;;;;30.88;7.38;;;;;;;13.43;94.51;101316.56;4973411;28;20034;-53
2022/10/02 01:43:32;;;;;;;23.70;5.82;;;;;;;13.33;95.05;101302.97;4974175;28;20550;-52
2022/10/02 01:46:04;;;;;;;34.13;6.75;;;;;;;13.43;95.16;101326.41;4975113;28;20041;-51
2022/10/02 01:48:46;;;;;;;30.35;7.07;;;;;;;13.45;94.99;101325.34;5010878;28;20025;-53
2022/10/02 01:51:30;;;;;;;41.35;8.32;;;;;;;13.45;94.99;101328.00;4992412;28;20018;-50
2022/10/02 01:54:17;;;;;;;32.08;6.75;;;;;;;13.47;94.77;101334.13;4990983;28;20042;-53
2022/10/02 01:56:58;;;;;;;31.05;6.60;;;;;;;13.47;95.05;101326.09;4984251;28;20443;-53
2022/10/02 01:59:36;;;;;;;29.90;6.78;;;;;;;13.48;95.33;101326.94;4992588;28;20023;-53
2022/10/02 02:02:10;;;;;;;34.72;7.32;;;;;;;13.47;95.83;101319.88;4999910;28;20587;-50
2022/10/02 02:04:59;;;;;;;36.28;7.38;;;;;;;13.46;95.93;101327.03;4987038;28;20041;-51
2022/10/02 02:07:27;;;;;;;38.20;6.90;;;;;;;13.47;96.01;101328.78;4991214;28;20027;-52
2022/10/02 02:10:05;;;;;;;31.35;6.75;;;;;;;13.45;95.95;101325.34;4972771;28;20117;-52
2022/10/02 02:12:40;;;;;;;31.92;7.32;;;;;;;13.48;96.11;101325.13;4991398;28;20413;-51
2022/10/02 02:15:22;;;;;;;36.75;7.20;;;;;;;13.50;96.08;101325.00;4971562;28;20030;-53
2022/10/02 02:18:19;;;;;;;35.05;7.72;;;;;;;13.52;95.76;101326.63;4990666;28;20109;-51
2022/10/02 02:20:52;;;;;;;29.13;6.95;;;;;;;13.53;96.02;101327.47;4987586;28;20045;-50
2022/10/02 02:23:21;;;;;;;29.02;6.72;;;;;;;13.49;96.22;101337.50;4991142;28;20026;-52
2022/10/02 02:25:50;;;;;;;28.80;6.75;;;;;;;13.51;96.22;101342.78;5004293;28;20045;-52
2022/10/02 02:28:18;;;;;;;;;;;;;;;13.58;95.07;101338.72;5010298;28;20086;-53
2022/10/02 02:30:48;;;;;;;30.75;6.38;;;;;;;13.52;96.12;101331.13;4989078;28;19918;-53
2022/10/02 02:33:24;;;;;;;36.80;7.03;;;;;;;13.56;96.04;101332.59;4973173;28;20027;-53
2022/10/02 02:35:54;;;;;;;34.22;7.05;;;;;;;13.52;96.51;101331.97;4989378;28;20030;-53
2022/10/02 02:38:30;;;;;;;33.60;6.47;;;;;;;13.57;96.82;101347.69;4989331;28;20064;-52
2022/10/02 02:41:01;;;;;;;24.45;6.75;;;;;;;13.55;96.83;101349.63;4988646;28;20037;-52
2022/10/02 02:43:40;;;;;;;24.67;6.32;;;;;;;13.53;96.70;101333.69;4990429;28;20018;-52
2022/10/02 02:46:14;;;;;;;22.65;4.97;;;;;;;13.51;95.60;101326.75;4989403;28;20026;-52
2022/10/02 02:48:49;;;;;;;21.58;4.93;;;;;;;13.50;95.85;101333.91;4997903;28;20431;-52
2022/10/02 02:51:23;;;;;;;19.30;4.90;;;;;;;13.46;96.80;101335.06;4989706;28;20382;-52
2022/10/02 02:53:59;;;;;;;17.92;4.82;;;;;;;13.46;95.98;101331.53;4989455;28;20076;-53
2022/10/02 02:56:31;;;;;;;14.63;3.97;;;;;;;13.36;94.77;101328.63;4990012;28;20103;-50
2022/10/02 02:59:17;;;;;;;19.00;4.40;;;;;;;13.35;94.58;101340.25;4971821;28;20075;-51
2022/10/02 03:01:43;;;;;;;15.88;4.43;;;;;;;13.32;94.68;101348.47;4990250;28;20033;-52
2022/10/02 03:04:12;;;;;;;15.65;4.10;;;;;;;13.24;94.30;101326.75;4988706;28;20027;-53
2022/10/02 03:06:47;;;;;;;13.40;3.50;;;;;;;13.28;93.88;101341.63;4988566;28;20030;-53
2022/10/02 03:09:19;;;;;;;13.52;3.92;;;;;;;13.23;92.82;101341.91;4989154;28;20038;-51
2022/10/02 03:12:03;;;;;;;15.65;3.78;;;;;;;13.23;93.37;101335.69;4944977;28;1290683;-52
2022/10/02 03:14:46;;;;;;;12.30;3.20;;;;;;;13.16;93.36;101348.63;4989828;28;20331;-53
2022/10/02 03:17:33;;;;;;;7.72;3.20;;;;;;;13.08;93.32;101334.91;4990139;28;20031;-53
2022/10/02 03:20:17;;;;;;;9.90;2.85;;;;;;;13.04;93.54;101336.06;4988648;28;20030;-52
2022/10/02 03:22:59;;;;;;;11.95;3.10;;;;;;;13.11;93.16;101348.06;4985234;28;20035;-51
2022/10/02 03:25:36;;;;;;;10.10;2.70;;;;;;;13.09;93.31;101350.00;4994170;28;20034;-51
2022/10/02 03:28:12;;;;;;;13.10;3.38;;;;;;;13.05;93.20;101345.78;4989777;28;20431;-53
2022/10/02 03:30:40;;;;;;;12.27;3.00;;;;;;;13.06;93.29;101345.69;4998375;28;20400;-52
2022/10/02 03:33:08;;;;;;;12.48;3.22;;;;;;;13.05;93.42;101343.13;4990687;28;20041;-52
2022/10/02 03:35:34;;;;;;;8.30;3.08;;;;;;;13.07;93.72;101346.56;4971300;28;20042;-51
2022/10/02 03:38:04;;;;;;;10.20;3.50;;;;;;;13.08;94.19;101348.25;4971514;28;20129;-51
2022/10/02 03:40:30;;;;;;;8.05;3.05;;;;;;;13.00;93.67;101343.44;4999328;28;20113;-52
2022/10/02 03:42:57;;;;;;;10.43;3.47;;;;;;;13.03;93.25;101355.69;4989979;28;20038;-53
2022/10/02 03:45:23;;;;;;;9.10;3.40;;;;;;;13.02;93.12;101343.31;4972257;28;20031;-53
2022/10/02 03:47:49;;;;;;;9.55;3.33;;;;;;;12.96;93.26;101340.09;4988742;28;20030;-52
2022/10/02 03:50:16;;;;;;;8.27;4.05;;;;;;;13.03;93.68;101358.38;4997020;28;20038;-53
2022/10/02 03:52:44;;;;;;;9.88;3.67;;;;;;;12.88;94.33;101374.47;4972125;28;20503;-52
2022/10/02 03:55:31;;;;;;;12.30;4.18;;;;;;;12.87;95.34;101379.88;4989378;28;20108;-53
2022/10/02 03:57:57;;;;;;;11.48;4.30;;;;;;;12.83;95.15;101381.03;4988467;28;20026;-53
2022/10/02 04:00:33;;;;;;;13.98;5.28;;;;;;;12.81;95.58;101358.91;4994658;28;20041;-53
2022/10/02 04:03:06;;;;;;;20.55;7.57;;;;;;;12.90;96.44;101359.19;4989590;28;20159;-52
2022/10/02 04:05:54;;;;;;;25.90;11.15;;;;;;;12.98;96.97;101363.19;4976666;28;20027;-52
2022/10/02 04:08:22;;;;;;;24.85;11.05;;;;;;;13.01;97.19;101358.50;4990280;28;20037;-51
2022/10/02 04:11:15;;;;;;;23.52;10.10;;;;;;;13.03;96.95;101361.03;4988018;28;20051;-52
2022/10/02 04:13:46;;;;;;;19.85;9.52;;;;;;;13.05;96.94;101360.00;4979208;28;20091;-52
2022/10/02 04:16:32;;;;;;;23.80;9.35;;;;;;;13.11;96.74;101364.94;4988694;28;20027;-51
2022/10/02 04:19:08;;;;;;;21.15;9.20;;;;;;;13.10;96.41;101365.03;4988882;28;20457;-52
2022/10/02 04:21:54;;;;;;;18.02;8.82;;;;;;;13.10;96.58;101363.22;4952496;28;20023;-52
2022/10/02 04:24:38;;;;;;;23.10;9.32;;;;;;;13.08;96.86;101357.13;4975118;28;20042;-53
2022/10/02 04:27:13;;;;;;;16.95;9.40;;;;;;;13.10;97.33;101365.03;4996571;28;20104;-52
2022/10/02 04:29:50;;;;;;;17.80;9.05;;;;;;;13.13;97.25;101367.50;4995439;28;20026;-52
2022/10/02 04:32:24;;;;;;;17.00;8.98;;;;;;;13.13;97.33;101364.84;4987817;28;20045;-52
2022/10/02 04:34:50;;;;;;;18.60;9.55;;;;;;;13.16;97.62;101368.16;4987843;28;20027;-52
2022/10/02 04:37:31;;;;;;;22.20;10.32;;;;;;;13.19;97.66;101365.28;4994556;28;20034;-52
2022/10/02 04:40:18;;;;;;;18.00;9.38;;;;;;;13.18;98.07;101360.91;4991898;28;20468;-53
2022/10/02 04:42:55;;;;;;;23.90;10.93;;;;;;;13.21;98.05;101370.53;4984525;28;21576;-52
2022/10/02 04:45:29;;;;;;;24.40;11.05;;;;;;;13.24;98.35;101378.34;4988674;28;20030;-52
2022/10/02 04:48:36;;;;;;;23.90;12.60;;;;;;;13.26;98.66;101387.13;4989600;28;20022;-50
2022/10/02 04:51:28;;;;;;;29.45;13.43;;;;;;;13.25;99.29;101385.44;4989755;28;20036;-52
2022/10/02 04:54:19;;;;;;;32.90;15.15;;;;;;;13.27;99.82;101394.22;4985251;28;20030;-49
2022/10/02 04:56:51;;;;;;;31.48;15.02;;;;;;;13.28;100.00;101387.91;4991357;28;20507;-49
2022/10/02 04:59:57;;;;;;;39.50;17.50;;;;;;;13.34;100.00;101394.66;4988151;28;20037;-51
2022/10/02 05:02:34;;;;;;;37.45;17.25;;;;;;;13.32;100.00;101399.25;4988732;28;20026;-51
2022/10/02 05:05:18;;;;;;;38.70;19.00;;;;;;;13.35;100.00;101388.34;4988422;28;20050;-50
2022/10/02 05:08:02;;;;;;;34.75;18.00;;;;;;;13.35;100.00;101393.69;4970303;28;20058;-52
2022/10/02 05:10:31;;;;;;;33.75;18.55;;;;;;;13.36;100.00;101400.78;4965088;28;20050;-52
2022/10/02 05:13:03;;;;;;;36.17;18.98;;;;;;;13.38;100.00;101398.84;4987942;28;20034;-51
2022/10/02 05:15:44;;;;;;;33.10;20.10;;;;;;;13.42;100.00;101404.84;4984342;28;20042;-53
2022/10/02 05:18:32;;;;;;;40.33;20.52;;;;;;;13.38;100.00;101390.81;4994345;28;20053;-52
2022/10/02 05:21:09;;;;;;;35.42;19.73;;;;;;;13.38;100.00;101397.03;4990804;28;20107;-51
2022/10/02 05:23:48;;;;;;;38.65;19.77;;;;;;;13.40;100.00;101396.94;4989391;28;20033;-51
2022/10/02 05:26:14;;;;;;;;;;;;;;;13.45;100.00;101407.31;5003328;28;20022;-52
2022/10/02 05:29:01;;;;;;;42.67;20.38;;;;;;;13.39;100.00;101405.91;5008537;28;19936;-53
2022/10/02 05:32:17;;;;;;;41.17;20.38;;;;;;;13.33;100.00;101401.81;4992542;28;20025;-52
2022/10/02 05:34:57;;;;;;;34.28;19.27;;;;;;;13.36;100.00;101416.81;4982573;28;20101;-53
2022/10/02 05:37:31;;;;;;;;;;;;;;;13.41;100.00;101420.00;4986744;28;20050;-52
2022/10/02 05:40:09;;;;;;;41.05;16.35;;;;;;;13.38;100.00;101413.06;4985647;28;20005;-53
2022/10/02 05:42:42;;;;;;;38.20;15.27;;;;;;;13.37;100.00;101424.69;4989038;28;20481;-52
2022/10/02 05:45:35;;;;;;;33.72;15.63;;;;;;;13.42;100.00;101428.91;4994567;28;20136;-53
2022/10/02 05:48:33;;;;;;;36.90;14.10;;;;;;;13.43;100.00;101427.94;5008402;28;20034;-52
2022/10/02 05:51:08;;;;;;;38.53;14.40;;;;;;;13.39;100.00;101422.78;5008319;28;20041;-49
2022/10/02 05:53:40;;;;;;;33.08;12.63;;;;;;;13.41;100.00;101428.03;4989389;28;20031;-50
2022/10/02 05:56:12;;;;;;;38.78;12.02;;;;;;;13.38;100.00;101425.53;4986637;28;20026;-51
2022/10/02 05:58:43;;;;;;;30.40;11.25;;;;;;;13.39;100.00;101429.97;4986571;28;20018;-51
2022/10/02 06:01:21;;;;;;;30.92;10.90;;;;;;;13.42;100.00;101423.56;4989061;28;20083;-51
2022/10/02 06:03:55;;;;;;;31.67;10.18;;;;;;;13.40;100.00;101420.97;4989103;28;20038;-53
2022/10/02 06:06:53;;;;;;;36.45;9.48;;;;;;;13.42;100.00;101426.22;4990584;28;20083;-51
2022/10/02 06:09:27;;;;;;;38.05;9.82;;;;;;;13.43;100.00;101420.75;4990318;28;20038;-50
2022/10/02 06:12:07;;;;;;;28.75;9.50;;;;;;;13.39;100.00;101416.59;4996772;28;20132;-49
2022/10/02 06:14:38;;;;;;;29.02;9.40;;;;;;;13.46;100.00;101447.28;5001085;28;20038;-52
2022/10/02 06:17:38;;;;;;;23.50;8.30;;;;;;;13.46;100.00;101443.75;4973279;28;20030;-52
2022/10/02 06:20:23;;;;;;;30.83;8.68;;;;;;;13.49;100.00;101449.75;4972567;28;20076;-52
2022/10/02 06:23:03;;;;;;;32.47;8.93;;;;;;;13.53;100.00;101453.97;4991807;28;20026;-51
2022/10/02 06:25:51;;;;;;;32.83;8.70;;;;;;;13.51;100.00;101465.72;4995730;28;20121;-53
2022/10/02 06:28:42;;;;;;;32.58;9.32;;;;;;;13.49;100.00;101462.25;5006375;28;20036;-53
2022/10/02 06:31:49;;;;;;;27.85;7.88;;;;;;;13.54;100.00;101466.34;5009309;28;20113;-53
2022/10/02 06:34:15;;;;;;;24.58;8.55;;;;;;;13.47;100.00;101457.03;5005519;28;20033;-54
2022/10/02 06:37:04;;;;;;;28.30;7.82;;;;;;;13.52;100.00;101456.72;4955215;28;20038;-54
2022/10/02 06:39:36;;;;;;;35.00;8.88;;;;;;;13.49;100.00;101467.63;4992178;28;20507;-54
2022/10/02 06:42:39;;;;;;;32.60;8.48;;;;;;;13.51;100.00;101471.06;5006790;28;20042;-52
2022/10/02 06:45:32;;;;;;;31.48;8.77;;;;;;;13.55;100.00;101468.06;4912367;29;20028;-53
2022/10/02 06:48:37;;;;;;;27.52;8.55;;;;;;;13.55;100.00;101470.72;4969154;28;20046;-53
2022/10/02 06:51:16;;;;;;;30.35;9.60;;;;;;;13.55;100.00;101483.25;4971966;28;20027;-52
2022/10/02 06:53:47;;;;;;;31.80;9.77;;;;;;;13.56;100.00;101485.84;5005849;28;20780;-53
2022/10/02 06:56:29;;;;;;;27.83;9.95;;;;;;;13.55;100.00;101480.56;4997215;28;20388;-51
2022/10/02 06:59:13;;;;;;;32.95;9.48;;;;;;;13.55;100.00;101492.13;4981626;28;20422;-52
2022/10/02 07:02:02;;;;;;;31.48;10.07;;;;;;;13.50;100.00;101483.56;5001881;28;20476;-51
2022/10/02 07:04:53;;;;;;;25.08;10.30;;;;;;;13.59;100.00;101503.50;4991874;28;20355;-52
2022/10/02 07:07:48;;;;;;;28.25;10.35;;;;;;;13.54;100.00;101501.09;4991616;28;20038;-53
2022/10/02 07:10:31;;;;;;;33.30;11.05;;;;;;;13.59;100.00;101511.50;4989477;28;20031;-52
2022/10/02 07:13:18;;;;;;;26.50;10.27;;;;;;;13.66;100.00;101507.47;4991123;28;20083;-51
2022/10/02 07:16:13;;;;;;;22.38;11.10;;;;;;;13.61;100.00;101509.56;4990853;28;20033;-51
2022/10/02 07:18:54;;;;;;;26.55;11.30;;;;;;;13.60;100.00;101507.88;4944410;28;20038;-53
2022/10/02 07:21:40;;;;;;;23.33;11.52;;;;;;;13.60;100.00;101506.03;4999705;28;20034;-54
2022/10/02 07:24:42;;;;;;;26.05;11.52;;;;;;;13.63;100.00;101505.84;4984466;28;20034;-52
2022/10/02 07:27:10;;;;;;;20.50;12.93;;;;;;;13.65;100.00;101511.09;4989511;28;20070;-50
2022/10/02 07:29:36;;;;;;;21.10;12.68;;;;;;;13.66;100.00;101515.47;4985543;28;20027;-54
2022/10/02 07:32:23;;;;;;;20.13;12.27;;;;;;;13.68;100.00;101510.00;4984766;28;20037;-53
2022/10/02 07:35:16;;;;;;;23.15;12.63;;;;;;;13.66;100.00;101499.44;4978769;28;20489;-52
2022/10/02 07:37:51;;;;;;;29.02;13.63;;;;;;;13.68;100.00;101512.69;4992529;28;20030;-53
2022/10/02 07:40:38;;;;;;;23.13;12.18;;;;;;;13.75;100.00;101517.53;4973828;28;20049;-52
2022/10/02 07:43:22;;;;;;;21.88;12.25;;;;;;;13.80;100.00;101519.94;5002037;28;20034;-52
2022/10/02 07:46:08;;;;;;;22.23;11.02;;;;;;;13.80;100.00;101526.13;4989478;28;20406;-52
2022/10/02 07:48:49;;;;;;;24.33;11.50;;;;;;;13.84;100.00;101522.28;4957557;28;20026;-53
2022/10/02 07:51:48;;;;;;;22.33;11.85;;;;;;;13.86;100.00;101528.41;4971015;28;20031;-53
2022/10/02 07:54:16;;;;;;;;;;;;;;;13.95;100.00;101526.94;4957070;28;20046;-52
2022/10/02 07:56:47;;;;;;;17.52;10.23;;;;;;;13.92;100.00;101528.97;4969617;28;19987;-53
2022/10/02 07:59:16;;;;;;;22.15;10.70;;;;;;;13.95;100.00;101531.44;4970788;28;20367;-53
2022/10/02 08:01:44;;;;;;;23.42;10.65;;;;;;;13.98;100.00;101532.06;4980084;28;20022;-52
2022/10/02 08:04:13;;;;;;;19.75;10.52;;;;;;;14.03;100.00;101542.44;4985091;28;20035;-53
2022/10/02 08:06:39;;;;;;;19.58;10.68;;;;;;;14.13;100.00;101535.53;4984354;28;20061;-53
2022/10/02 08:09:12;;;;;;;20.67;11.63;;;;;;;14.14;100.00;101536.41;4998691;28;20041;-53
2022/10/02 08:11:43;;;;;;;20.30;12.40;;;;;;;14.23;100.00;101549.16;5006060;28;20050;-53
2022/10/02 08:14:21;;;;;;;25.70;12.80;;;;;;;14.22;100.00;101555.47;4971335;28;20537;-53
2022/10/02 08:16:53;;;;;;;24.67;12.48;;;;;;;14.27;100.00;101561.38;4974948;28;20034;-53
2022/10/02 08:19:49;;;;;;;19.50;11.95;;;;;;;14.34;100.00;101564.50;4970092;28;20035;-53
2022/10/02 08:22:29;;;;;;;22.35;14.20;;;;;;;14.33;100.00;101569.00;4985315;28;20105;-52
2022/10/02 08:25:04;;;;;;;22.25;14.25;;;;;;;14.37;100.00;101564.28;4989868;28;20030;-52
2022/10/02 08:27:51;;;;;;;20.60;14.27;;;;;;;14.43;100.00;101572.75;4988308;28;20483;-53
2022/10/02 08:30:18;;;;;;;28.88;14.30;;;;;;;14.37;100.00;101566.97;4986586;28;20084;-52
2022/10/02 08:32:43;;;;;;;22.25;12.98;;;;;;;14.42;100.00;101580.91;4968699;28;20057;-52
2022/10/02 08:35:18;;;;;;;24.95;12.27;;;;;;;14.39;100.00;101570.41;4974967;28;20041;-54
2022/10/02 08:38:09;;;;;;;23.48;12.40;;;;;;;14.47;100.00;101571.59;4989768;28;20034;-53
2022/10/02 08:40:52;;;;;;;21.23;12.15;;;;;;;14.53;100.00;101587.28;4979164;28;20512;-52
2022/10/02 08:43:37;;;;;;;22.10;12.75;;;;;;;14.59;100.00;101582.44;4995741;28;20141;-50
2022/10/02 08:46:21;;;;;;;22.30;11.43;;;;;;;14.70;100.00;101590.59;4999762;28;20022;-53
2022/10/02 08:49:05;;;;;;;20.80;10.77;;;;;;;14.61;100.00;101589.41;5006688;28;20485;-52
2022/10/02 08:51:38;;;;;;;15.45;9.65;;;;;;;14.67;100.00;101605.06;5091674;28;20038;-52
2022/10/02 08:54:34;;;;;;;19.38;9.75;;;;;;;14.70;100.00;101601.31;5041571;28;20029;-53
2022/10/02 08:57:37;;;;;;;20.60;9.48;;;;;;;14.77;100.00;101595.44;4988632;28;20073;-52
2022/10/02 09:00:21;;;;;;;16.45;9.63;;;;;;;14.82;100.00;101591.59;4971996;28;20030;-51
2022/10/02 09:03:08;;;;;;;17.13;8.85;;;;;;;14.91;100.00;101601.66;4970021;28;20033;-52
2022/10/02 09:05:56;;;;;;;21.13;8.98;;;;;;;15.01;100.00;101612.63;4985625;28;20030;-52
2022/10/02 09:08:47;;;;;;;17.42;8.27;;;;;;;14.99;99.41;101600.16;4986813;28;20073;-54
2022/10/02 09:11:35;;;;;;;16.23;8.82;;;;;;;15.03;99.50;101608.88;4988908;28;20054;-51
2022/10/02 09:14:19;;;;;;;16.48;8.38;;;;;;;15.07;99.75;101615.72;4970871;28;20037;-52
2022/10/02 09:17:06;;;;;;;16.92;8.60;;;;;;;15.07;98.79;101602.31;4970932;28;20030;-53
2022/10/02 09:20:04;;;;;;;22.77;8.45;;;;;;;15.18;99.37;101610.47;4988571;28;20034;-52
2022/10/02 09:23:07;;;;;;;17.40;8.37;;;;;;;15.32;99.39;101625.56;4970816;28;20095;-52
2022/10/02 09:25:51;;;;;;;24.02;8.75;;;;;;;15.35;98.59;101617.31;4989062;28;20361;-53
2022/10/02 09:28:58;;;;;;;14.93;8.32;;;;;;;15.40;97.73;101609.78;4972731;28;20469;-53
2022/10/02 09:31:54;;;;;;;19.80;7.55;;;;;;;15.55;97.55;101610.50;4984116;28;20030;-53
2022/10/02 09:34:25;;;;;;;19.42;8.05;;;;;;;15.64;97.54;101609.00;4990740;28;20025;-53
2022/10/02 09:37:23;;;;;;;22.52;7.85;;;;;;;15.67;97.16;101623.06;4992258;28;20022;-53
2022/10/02 09:40:26;;;;;;;16.52;6.80;;;;;;;15.63;96.06;101621.56;4992120;28;20112;-54
2022/10/02 09:43:00;;;;;;;22.83;7.40;;;;;;;15.63;96.26;101628.75;4974566;28;20188;-53
2022/10/02 09:45:54;;;;;;;21.33;7.32;;;;;;;15.70;94.67;101632.72;5021754;28;20036;-54
2022/10/02 09:48:29;;;;;;;17.77;6.53;;;;;;;15.84;95.11;101637.94;4963839;28;20026;-53
2022/10/02 09:51:25;;;;;;;15.73;5.88;;;;;;;15.86;94.07;101632.47;4955878;28;20084;-54
2022/10/02 09:54:02;;;;;;;19.00;6.78;;;;;;;15.78;93.63;101637.53;4995801;28;20067;-54
2022/10/02 09:56:45;;;;;;;17.38;7.05;;;;;;;15.65;93.12;101641.09;5007615;28;20500;-54
2022/10/02 09:59:28;;;;;;;20.67;6.25;;;;;;;15.71;92.84;101638.97;4991191;28;20038;-53
2022/10/02 10:02:32;;;;;;;19.17;7.15;;;;;;;15.76;92.80;101643.00;4991671;28;20092;-54
2022/10/02 10:05:47;;;;;;;20.55;6.47;;;;;;;15.92;93.46;101634.72;4978082;28;20087;-53
2022/10/02 10:08:31;;;;;;;21.98;6.40;;;;;;;16.03;93.35;101647.31;4990586;28;20115;-54
2022/10/02 10:11:18;;;;;;;18.67;6.85;;;;;;;16.22;91.42;101647.69;4991397;28;20046;-54
2022/10/02 10:13:46;;;;;;;19.02;6.60;;;;;;;16.52;91.49;101646.38;4992146;28;20072;-53
2022/10/02 10:16:18;;;;;;;21.70;6.03;;;;;;;16.76;89.18;101651.75;4990377;28;20041;-54
2022/10/02 10:19:05;;;;;;;17.17;5.88;;;;;;;16.87;89.52;101650.94;4989625;28;20513;-54
2022/10/02 10:21:36;;;;;;;16.95;6.15;;;;;;;16.90;88.10;101664.13;4991065;28;20117;-54
2022/10/02 10:24:29;;;;;;;18.23;6.10;;;;;;;16.98;86.82;101659.03;4972726;28;20133;-54
2022/10/02 10:27:12;;;;;;;17.02;5.40;;;;;;;16.96;85.36;101660.97;4987036;28;20019;-54
2022/10/02 10:29:47;;;;;;;16.40;5.68;;;;;;;16.88;85.32;101664.22;4989643;28;20030;-54
2022/10/02 10:32:19;;;;;;;18.25;5.05;;;;;;;16.88;84.90;101679.50;4990724;28;20105;-54
2022/10/02 10:34:58;;;;;;;19.50;5.78;;;;;;;16.80;85.94;101685.47;4988515;28;20435;-54
2022/10/02 10:40:37;;;;;;;18.02;5.38;;;;;;;16.64;86.78;101698.31;4982598;28;20083;-54
2022/10/02 10:43:17;;;;;;;17.42;5.20;;;;;;;16.61;86.24;101699.41;4988529;28;20042;-55
2022/10/02 10:45:55;;;;;;;14.95;4.72;;;;;;;16.58;85.41;101705.00;4983237;28;20023;-54
2022/10/02 10:49:11;;;;;;;18.25;5.00;;;;;;;16.76;85.82;101694.72;4966883;28;20035;-54
2022/10/02 10:51:44;;;;;;;17.88;5.00;;;;;;;16.84;83.37;101707.59;4998518;28;20046;-54
2022/10/02 10:54:39;;;;;;;20.25;5.78;;;;;;;16.85;83.83;101704.78;4971649;28;20377;-53
2022/10/02 10:57:18;;;;;;;14.05;4.53;;;;;;;16.75;83.80;101699.22;4979179;28;20074;-54
2022/10/02 11:00:21;;;;;;;19.17;5.00;;;;;;;16.80;84.99;101699.75;4986054;28;20031;-54
2022/10/02 11:02:57;;;;;;;17.52;5.70;;;;;;;16.79;85.02;101702.56;4976663;28;20350;-52
2022/10/02 11:05:41;;;;;;;15.02;4.60;;;;;;;16.87;85.25;101696.63;4971678;28;20026;-52
2022/10/02 11:08:25;;;;;;;19.80;5.43;;;;;;;16.86;83.35;101690.38;4982136;28;20042;-54
2022/10/02 11:11:09;;;;;;;16.42;5.15;;;;;;;16.94;83.75;101687.97;4972557;28;20046;-53
2022/10/02 11:13:56;;;;;;;14.18;5.68;;;;;;;17.01;83.94;101694.59;4982339;28;20061;-54
2022/10/02 11:16:43;;;;;;;16.23;5.63;;;;;;;17.10;83.78;101697.53;4976481;28;20030;-52
2022/10/02 11:19:42;;;;;;;19.02;4.45;;;;;;;16.98;82.15;101693.97;4988623;28;20034;-53
2022/10/02 11:23:02;;;;;;;18.55;5.13;;;;;;;16.94;81.65;101696.03;4972994;28;20032;-52
2022/10/02 11:26:01;;;;;;;19.63;4.75;;;;;;;17.04;81.79;101704.25;5020478;28;20038;-53
2022/10/02 11:28:27;;;;;;;;;;;;;;;17.18;82.19;101719.31;4989129;28;20504;-54
2022/10/02 11:30:58;;;;;;;14.35;4.18;;;;;;;17.02;80.23;101719.63;4988486;28;19914;-52
2022/10/02 11:33:47;;;;;;;15.75;4.30;;;;;;;16.88;78.15;101722.50;4981197;28;20433;-52
2022/10/02 11:36:13;;;;;;;;;;;;;;;16.91;80.54;101722.25;4972902;28;20050;-52
2022/10/02 11:39:06;;;;;;;18.42;4.78;;;;;;;16.81;80.41;101727.50;4999567;28;19914;-52
2022/10/02 11:41:48;;;;;;;17.67;5.30;;;;;;;16.62;80.98;101725.31;4953867;28;20022;-54
2022/10/02 11:44:38;;;;;;;14.93;5.28;;;;;;;16.61;82.32;101725.41;4971103;28;20023;-54
2022/10/02 11:47:27;;;;;;;17.02;4.95;;;;;;;16.58;81.31;101726.47;4971112;28;20438;-53
2022/10/02 11:50:28;;;;;;;16.83;5.28;;;;;;;16.99;81.97;101719.84;4971383;28;20034;-53
2022/10/02 11:52:59;;;;;;;16.15;4.90;;;;;;;17.81;79.69;101722.47;4971120;28;20026;-54
2022/10/02 11:55:43;;;;;;;18.20;5.40;;;;;;;18.21;77.31;101717.44;4952786;28;20031;-54
2022/10/02 11:58:32;;;;;;;15.88;5.53;;;;;;;18.65;74.61;101725.50;4970829;28;20488;-54
2022/10/02 12:01:23;;;;;;;17.45;5.70;;;;;;;18.99;74.31;101723.56;4971583;28;20057;-54
2022/10/02 12:04:02;;;;;;;18.17;5.57;;;;;;;18.67;73.84;101729.78;4952802;28;20027;-54
2022/10/02 12:07:12;;;;;;;19.40;6.10;;;;;;;18.35;75.83;101725.25;4970657;28;20403;-53
2022/10/02 12:09:41;;;;;;;18.10;5.90;;;;;;;17.75;78.02;101731.00;4969454;28;20033;-54
2022/10/02 12:12:29;;;;;;;18.75;7.13;;;;;;;17.53;78.78;101735.41;4990217;28;20050;-54
2022/10/02 12:15:29;;;;;;;18.48;6.22;;;;;;;17.14;80.44;101742.03;4989830;28;20084;-54
2022/10/02 12:18:13;;;;;;;16.95;6.07;;;;;;;16.80;82.08;101742.75;4970713;28;20093;-54
2022/10/02 12:27:20;;;;;;;20.48;7.40;;;;;;;16.07;86.43;101746.31;4990749;28;20053;-53